Time;durP1;ratioP1;P1;durP2;ratioP2;P2;SDS_P1;SDS_P2;PMS_P1;PMS_P2;Temp;Humidity;BMP_temperature;BMP_pressure;BME280_temperature;BME280_humidity;BME280_pressure;Samples;Min_cycle;Max_cycle;Signal;HPM_P1;HPM_P2
2023/03/24 00:02:12;;;;;;;;;22.00;19.00;;;;;;;;5024732;28;13567;-67
2023/03/24 00:04:39;;;;;;;;;20.00;19.25;;;;;;;;5025689;28;13522;-67
2023/03/24 00:07:04;;;;;;;;;19.00;18.00;;;;;;;;5028606;28;13498;-67
2023/03/24 00:09:29;;;;;;;;;21.00;18.33;;;;;;;;5028292;28;14337;-68
2023/03/24 00:11:56;;;;;;;;;19.25;17.00;;;;;;;;5028385;28;13525;-67
2023/03/24 00:14:22;;;;;;;;;15.75;14.25;;;;;;;;5028704;28;13767;-67
2023/03/24 00:16:48;;;;;;;;;19.25;17.50;;;;;;;;5028056;28;13533;-68
2023/03/24 00:19:15;;;;;;;;;18.25;15.00;;;;;;;;5027655;28;13771;-68
2023/03/24 00:21:41;;;;;;;;;16.50;15.75;;;;;;;;5028258;28;13512;-67
2023/03/24 00:24:06;;;;;;;;;12.60;12.60;;;;;;;;5028019;28;13617;-67
2023/03/24 00:26:32;;;;;;;;;18.67;18.00;;;;;;;;5027936;28;13553;-67
2023/03/24 00:28:57;;;;;;;;;15.60;14.20;;;;;;;;5028061;28;13517;-67
2023/03/24 00:31:24;;;;;;;;;15.00;15.00;;;;;;;;5027939;28;14351;-67
2023/03/24 00:33:49;;;;;;;;;19.00;18.00;;;;;;;;5028168;28;13588;-67
2023/03/24 00:36:17;;;;;;;;;15.80;15.80;;;;;;;;5028264;28;13524;-67
2023/03/24 00:38:42;;;;;;;;;17.00;14.80;;;;;;;;5027579;28;13501;-67
2023/03/24 00:41:09;;;;;;;;;15.75;15.00;;;;;;;;5027525;28;14290;-67
2023/03/24 00:43:35;;;;;;;;;18.25;16.00;;;;;;;;5027775;28;14395;-67
2023/03/24 00:46:02;;;;;;;;;16.00;15.00;;;;;;;;5027671;28;13534;-67
2023/03/24 00:48:28;;;;;;;;;16.00;14.50;;;;;;;;5028003;28;13511;-67
2023/03/24 00:50:54;;;;;;;;;16.00;16.00;;;;;;;;5027781;28;13518;-67
2023/03/24 00:53:21;;;;;;;;;16.50;14.25;;;;;;;;5027729;28;13527;-67
2023/03/24 00:55:48;;;;;;;;;21.25;16.00;;;;;;;;5042622;28;13530;-67
2023/03/24 00:58:18;;;;;;;;;16.20;16.20;;;;;;;;5026986;28;13538;-67
2023/03/24 01:00:47;;;;;;;;;16.00;15.00;;;;;;;;5027531;28;13750;-67
2023/03/24 01:03:12;;;;;;;;;14.60;14.60;;;;;;;;5027557;28;13492;-66
2023/03/24 01:05:38;;;;;;;;;13.00;13.00;;;;;;;;5027511;28;13585;-66
2023/03/24 01:08:03;;;;;;;;;18.50;16.00;;;;;;;;5027374;28;13501;-66
2023/03/24 01:10:31;;;;;;;;;13.75;13.75;;;;;;;;5027222;28;13551;-67
2023/03/24 01:12:58;;;;;;;;;15.25;13.00;;;;;;;;5027189;28;13567;-67
2023/03/24 01:15:26;;;;;;;;;14.00;14.00;;;;;;;;5027419;28;13485;-67
2023/03/24 01:17:52;;;;;;;;;13.25;12.50;;;;;;;;5026753;28;13561;-67
2023/03/24 01:20:18;;;;;;;;;14.33;14.33;;;;;;;;5027364;28;13497;-67
2023/03/24 01:22:45;;;;;;;;;14.00;14.00;;;;;;;;5027321;28;13367;-67
2023/03/24 01:25:17;;;;;;;;;13.75;13.25;;;;;;;;5026989;28;14267;-66
2023/03/24 01:27:46;;;;;;;;;15.20;15.20;;;;;;;;5026910;28;13510;-67
2023/03/24 01:30:13;;;;;;;;;15.00;11.75;;;;;;;;5027129;28;13508;-67
2023/03/24 01:32:39;;;;;;;;;11.00;11.00;;;;;;;;5026808;28;13682;-67
2023/03/24 01:35:05;;;;;;;;;10.60;10.60;;;;;;;;5027051;28;13486;-67
2023/03/24 01:37:30;;;;;;;;;19.00;15.00;;;;;;;;5026747;28;13505;-66
2023/03/24 01:39:55;;;;;;;;;13.00;13.00;;;;;;;;5026676;28;13769;-66
2023/03/24 01:42:22;;;;;;;;;11.50;10.00;;;;;;;;5026724;28;14411;-67
2023/03/24 01:44:48;;;;;;;;;11.00;11.00;;;;;;;;5026875;28;13509;-66
2023/03/24 01:47:14;;;;;;;;;14.50;14.50;;;;;;;;5026904;28;13523;-67
2023/03/24 01:49:46;;;;;;;;;14.25;13.50;;;;;;;;5026510;28;13550;-67
2023/03/24 01:52:18;;;;;;;;;11.20;11.20;;;;;;;;5026627;28;13535;-66
2023/03/24 01:54:49;;;;;;;;;11.50;10.50;;;;;;;;5026607;28;13513;-67
2023/03/24 01:57:20;;;;;;;;;11.00;11.00;;;;;;;;5026710;28;13572;-67
2023/03/24 01:59:47;;;;;;;;;10.00;10.00;;;;;;;;5026478;28;14211;-67
2023/03/24 02:02:13;;;;;;;;;12.00;10.60;;;;;;;;5026490;28;13464;-67
2023/03/24 02:04:43;;;;;;;;;11.75;10.25;;;;;;;;5026549;28;13642;-66
2023/03/24 02:07:12;;;;;;;;;13.40;10.00;;;;;;;;5025829;28;13535;-67
2023/03/24 02:09:38;;;;;;;;;13.00;10.50;;;;;;;;5026127;28;13524;-66
2023/03/24 02:12:03;;;;;;;;;11.67;10.00;;;;;;;;5026233;28;14330;-67
2023/03/24 02:14:28;;;;;;;;;12.33;11.67;;;;;;;;5026392;28;13707;-66
2023/03/24 02:17:09;;;;;;;;;15.00;11.00;;;;;;;;5025998;28;14196;-67
2023/03/24 02:19:43;;;;;;;;;14.50;12.00;;;;;;;;5026020;28;13551;-66
2023/03/24 02:22:35;;;;;;;;;13.00;10.80;;;;;;;;5025956;28;14292;-66
2023/03/24 02:25:16;;;;;;;;;9.50;9.50;;;;;;;;5025688;28;13566;-66
2023/03/24 02:27:59;;;;;;;;;15.00;9.80;;;;;;;;5024699;28;13479;-67
2023/03/24 02:30:39;;;;;;;;;14.20;11.00;;;;;;;;5025311;28;14228;-66
2023/03/24 02:33:19;;;;;;;;;11.80;10.40;;;;;;;;5024447;28;14250;-66
2023/03/24 02:36:03;;;;;;;;;10.80;10.00;;;;;;;;5025718;28;13472;-67
2023/03/24 02:38:28;;;;;;;;;13.00;9.25;;;;;;;;5025692;28;13503;-67
2023/03/24 02:41:23;;;;;;;;;12.25;11.00;;;;;;;;5025425;28;13503;-67
2023/03/24 02:43:54;;;;;;;;;9.50;9.50;;;;;;;;5006193;28;13674;-66
2023/03/24 02:46:20;;;;;;;;;12.50;11.50;;;;;;;;5024313;28;13474;-66
2023/03/24 02:49:04;;;;;;;;;15.00;13.67;;;;;;;;5023992;28;13537;-67
2023/03/24 02:51:32;;;;;;;;;13.60;11.00;;;;;;;;5024208;28;14444;-66
2023/03/24 02:54:04;;;;;;;;;11.40;11.40;;;;;;;;5024290;28;13625;-67
2023/03/24 02:56:35;;;;;;;;;14.40;13.00;;;;;;;;5025505;28;13634;-66
2023/03/24 02:59:05;;;;;;;;;13.50;11.50;;;;;;;;5025006;28;13661;-66
2023/03/24 03:02:05;;;;;;;;;9.75;9.50;;;;;;;;5025255;28;13544;-66
2023/03/24 03:04:34;;;;;;;;;11.00;11.00;;;;;;;;5003014;28;13507;-67
2023/03/24 03:07:05;;;;;;;;;10.20;10.20;;;;;;;;5002977;28;13579;-67
2023/03/24 03:09:32;;;;;;;;;11.80;11.80;;;;;;;;5002945;28;13527;-67
2023/03/24 03:11:58;;;;;;;;;11.25;9.75;;;;;;;;5003086;28;13533;-66
2023/03/24 03:14:36;;;;;;;;;13.75;10.75;;;;;;;;5009454;28;13631;-67
2023/03/24 03:17:06;;;;;;;;;11.00;10.00;;;;;;;;5010100;28;13777;-67
2023/03/24 03:19:37;;;;;;;;;13.00;10.75;;;;;;;;5011972;28;13521;-67
2023/03/24 03:22:04;;;;;;;;;11.00;11.00;;;;;;;;5004915;28;13552;-67
2023/03/24 03:24:33;;;;;;;;;12.80;11.60;;;;;;;;5011944;28;13811;-66
2023/03/24 03:27:07;;;;;;;;;10.80;10.00;;;;;;;;5008316;28;13576;-67
2023/03/24 03:29:38;;;;;;;;;9.00;9.00;;;;;;;;5010602;28;13583;-67
2023/03/24 03:32:08;;;;;;;;;7.00;7.00;;;;;;;;5010854;28;13539;-67
2023/03/24 03:34:37;;;;;;;;;10.75;9.75;;;;;;;;4995489;28;13574;-68
2023/03/24 03:37:08;;;;;;;;;10.75;10.75;;;;;;;;5010430;28;14120;-68
2023/03/24 03:39:42;;;;;;;;;12.50;11.50;;;;;;;;5029186;28;13745;-68
2023/03/24 03:42:08;;;;;;;;;15.00;10.25;;;;;;;;5037296;28;13527;-66
2023/03/24 03:44:34;;;;;;;;;10.00;10.00;;;;;;;;5036892;28;13524;-67
2023/03/24 03:46:59;;;;;;;;;13.25;10.00;;;;;;;;5036772;28;13487;-67
2023/03/24 03:49:25;;;;;;;;;11.67;11.00;;;;;;;;5037451;28;14394;-68
2023/03/24 03:51:51;;;;;;;;;13.00;11.00;;;;;;;;5038154;28;13484;-68
2023/03/24 03:54:17;;;;;;;;;10.00;10.00;;;;;;;;5035862;28;13623;-67
2023/03/24 03:56:42;;;;;;;;;10.00;10.00;;;;;;;;5038195;28;13456;-71
2023/03/24 03:59:21;;;;;;;;;12.50;12.50;;;;;;;;5036630;28;13493;-70
2023/03/24 04:01:47;;;;;;;;;13.60;11.00;;;;;;;;5036078;28;13651;-70
2023/03/24 04:04:25;;;;;;;;;11.00;11.00;;;;;;;;5036610;28;14329;-70
2023/03/24 04:07:07;;;;;;;;;12.60;12.20;;;;;;;;5036763;28;13485;-70
2023/03/24 04:09:44;;;;;;;;;13.00;13.00;;;;;;;;5035888;28;13644;-71
2023/03/24 04:12:28;;;;;;;;;15.00;14.00;;;;;;;;5037293;28;13639;-71
2023/03/24 04:15:09;;;;;;;;;15.00;12.00;;;;;;;;5032899;28;13807;-71
2023/03/24 04:17:49;;;;;;;;;14.25;14.25;;;;;;;;5026531;28;13512;-71
2023/03/24 04:20:18;;;;;;;;;14.20;14.20;;;;;;;;5028318;28;13492;-71
2023/03/24 04:22:52;;;;;;;;;11.80;10.40;;;;;;;;5028250;28;13627;-72
2023/03/24 04:25:44;;;;;;;;;10.20;10.20;;;;;;;;5028216;28;13518;-72
2023/03/24 04:28:18;;;;;;;;;14.00;12.00;;;;;;;;5019292;28;14285;-71
2023/03/24 04:30:49;;;;;;;;;14.00;14.00;;;;;;;;5028224;28;13534;-71
2023/03/24 04:33:17;;;;;;;;;12.00;11.00;;;;;;;;5027974;28;13502;-71
2023/03/24 04:35:48;;;;;;;;;12.00;12.00;;;;;;;;5028132;28;13479;-72
2023/03/24 04:38:17;;;;;;;;;15.00;12.00;;;;;;;;5028097;28;14056;-71
2023/03/24 04:40:45;;;;;;;;;12.00;12.00;;;;;;;;5027846;28;13610;-71
2023/03/24 04:43:13;;;;;;;;;16.00;12.00;;;;;;;;5027959;28;14309;-71
2023/03/24 04:45:38;;;;;;;;;16.00;12.40;;;;;;;;5028448;28;13550;-72
2023/03/24 04:48:07;;;;;;;;;11.75;11.75;;;;;;;;5027390;28;13552;-72
2023/03/24 04:50:35;;;;;;;;;15.00;13.50;;;;;;;;5027347;28;13673;-72
2023/03/24 04:53:01;;;;;;;;;10.25;9.75;;;;;;;;5027881;28;14370;-72
2023/03/24 04:55:49;;;;;;;;;10.80;10.80;;;;;;;;5027602;28;13466;-71
2023/03/24 04:58:15;;;;;;;;;14.50;11.50;;;;;;;;5027701;28;13459;-71
2023/03/24 05:00:42;;;;;;;;;12.50;11.50;;;;;;;;5027569;28;13491;-72
2023/03/24 05:03:08;;;;;;;;;14.50;12.50;;;;;;;;5027796;28;13467;-72
2023/03/24 05:05:33;;;;;;;;;9.67;9.67;;;;;;;;5027041;28;13555;-72
2023/03/24 05:07:59;;;;;;;;;16.75;15.25;;;;;;;;5027387;28;13488;-72
2023/03/24 05:10:24;;;;;;;;;12.00;11.75;;;;;;;;5027361;28;13647;-71
2023/03/24 05:12:49;;;;;;;;;15.00;10.75;;;;;;;;5027474;28;13397;-72
2023/03/24 05:15:15;;;;;;;;;15.00;11.00;;;;;;;;5027397;28;13675;-72
2023/03/24 05:17:41;;;;;;;;;13.40;13.40;;;;;;;;5027225;28;13687;-70
2023/03/24 05:20:09;;;;;;;;;14.50;13.00;;;;;;;;5027233;28;14289;-71
2023/03/24 05:22:35;;;;;;;;;14.00;14.00;;;;;;;;5026556;28;13600;-70
2023/03/24 05:25:00;;;;;;;;;12.00;12.00;;;;;;;;5042069;28;13829;-72
2023/03/24 05:27:26;;;;;;;;;10.50;10.50;;;;;;;;5027563;28;13481;-71
2023/03/24 05:29:51;;;;;;;;;16.25;15.00;;;;;;;;5027373;28;13587;-71
2023/03/24 05:32:16;;;;;;;;;16.75;15.00;;;;;;;;5027003;28;13531;-71
2023/03/24 05:34:41;;;;;;;;;12.50;11.00;;;;;;;;5027135;28;14245;-71
2023/03/24 05:37:10;;;;;;;;;15.00;11.00;;;;;;;;5026827;28;13721;-71
2023/03/24 05:39:36;;;;;;;;;15.20;13.40;;;;;;;;5041105;28;13683;-72
2023/03/24 05:42:01;;;;;;;;;11.00;11.00;;;;;;;;5026673;28;13778;-71
2023/03/24 05:44:27;;;;;;;;;15.67;14.67;;;;;;;;5027074;28;13493;-71
2023/03/24 05:46:52;;;;;;;;;10.00;8.75;;;;;;;;5026779;28;13626;-71
2023/03/24 05:49:17;;;;;;;;;12.50;12.50;;;;;;;;5026705;28;13474;-70
2023/03/24 05:51:42;;;;;;;;;16.00;11.00;;;;;;;;5026469;28;13507;-71
2023/03/24 05:54:08;;;;;;;;;14.00;11.67;;;;;;;;5026368;28;13611;-71
2023/03/24 05:56:33;;;;;;;;;13.33;13.33;;;;;;;;5026224;28;14284;-71
2023/03/24 05:58:58;;;;;;;;;12.00;11.33;;;;;;;;5025797;28;13688;-72
2023/03/24 06:01:27;;;;;;;;;9.50;9.50;;;;;;;;5026074;28;13487;-71
2023/03/24 06:03:55;;;;;;;;;13.00;11.00;;;;;;;;5025773;28;13510;-71
2023/03/24 06:06:21;;;;;;;;;11.50;11.50;;;;;;;;5026112;28;13484;-71
2023/03/24 06:08:46;;;;;;;;;14.33;12.00;;;;;;;;5025932;28;13545;-72
2023/03/24 06:11:12;;;;;;;;;9.33;9.33;;;;;;;;5025888;28;13484;-71
2023/03/24 06:13:37;;;;;;;;;8.75;8.75;;;;;;;;5026114;28;13501;-71
2023/03/24 06:16:02;;;;;;;;;13.00;13.00;;;;;;;;5025859;28;14148;-70
2023/03/24 06:18:29;;;;;;;;;14.00;13.00;;;;;;;;5024491;28;13620;-71
2023/03/24 06:20:55;;;;;;;;;10.00;10.00;;;;;;;;5025455;28;13553;-71
2023/03/24 06:23:26;;;;;;;;;11.75;11.75;;;;;;;;5025651;28;13509;-72
2023/03/24 06:25:52;;;;;;;;;10.40;10.40;;;;;;;;5040816;28;13528;-72
2023/03/24 06:28:18;;;;;;;;;11.00;10.00;;;;;;;;5026048;28;13526;-71
2023/03/24 06:30:43;;;;;;;;;10.00;10.00;;;;;;;;5025496;28;14394;-71
2023/03/24 06:33:10;;;;;;;;;10.75;10.75;;;;;;;;5027663;28;13524;-69
2023/03/24 06:35:35;;;;;;;;;10.00;10.00;;;;;;;;5039822;28;13495;-69
2023/03/24 06:38:01;;;;;;;;;17.00;13.75;;;;;;;;5029521;28;13650;-69
2023/03/24 06:40:26;;;;;;;;;18.75;17.00;;;;;;;;5025334;28;14264;-70
2023/03/24 06:42:51;;;;;;;;;14.33;14.33;;;;;;;;5025543;28;13502;-70
2023/03/24 06:45:17;;;;;;;;;16.00;15.00;;;;;;;;5016299;28;13583;-79
2023/03/24 06:47:42;;;;;;;;;11.67;11.00;;;;;;;;5021439;28;13791;-69
2023/03/24 06:50:08;;;;;;;;;14.50;12.75;;;;;;;;5025489;28;13583;-69
2023/03/24 06:52:34;;;;;;;;;12.50;12.25;;;;;;;;5025127;28;13665;-70
2023/03/24 06:54:59;;;;;;;;;11.00;11.00;;;;;;;;5035919;28;13504;-69
2023/03/24 06:57:26;;;;;;;;;11.50;11.50;;;;;;;;5045010;28;13630;-69
2023/03/24 06:59:51;;;;;;;;;12.25;10.75;;;;;;;;5044940;28;14222;-67
2023/03/24 07:02:17;;;;;;;;;11.00;11.00;;;;;;;;5045012;28;13489;-71
2023/03/24 07:04:42;;;;;;;;;11.00;10.67;;;;;;;;5044941;28;13495;-69
2023/03/24 07:07:08;;;;;;;;;17.00;14.00;;;;;;;;5045236;28;13522;-67
2023/03/24 07:09:33;;;;;;;;;12.00;10.33;;;;;;;;5037029;28;13550;-68
2023/03/24 07:11:58;;;;;;;;;15.25;15.25;;;;;;;;5025092;28;13508;-70
2023/03/24 07:14:26;;;;;;;;;13.75;13.00;;;;;;;;5023527;28;13530;-67
2023/03/24 07:16:52;;;;;;;;;12.25;12.00;;;;;;;;5025125;28;13520;-67
2023/03/24 07:19:17;;;;;;;;;12.00;12.00;;;;;;;;5024466;28;14476;-73
2023/03/24 07:21:43;;;;;;;;;13.33;13.33;;;;;;;;5024833;28;13504;-73
